METAR AND TAF INFORMATION
METAR FOR EHRD
ADDS - METARS form results

(1535 UTC 29 May 2020)
Data provider http://aviationweather.gov/metar/data/
 
METAR text: EHRD 291525Z AUTO 06008KT 350V110 9999 NSC 21/07 Q1026 NOSIG
Conditions at: EHRD (ROTTERDAM AIRPOR, NL) observed 1525 UTC 29 May 2020
Temperature: 21.0°C (70°F)
Dewpoint: 7.0°C (45°F) [RH = 40%]
Pressure (altimeter): 30.30 inches Hg (1026.0 mb)
Winds: from the ENE (60 degrees) at 9 MPH (8 knots; 4.1 m/s)
Visibility: 6 or more miles (10+ km)
Ceiling: at least 12,000 feet AGL
Clouds: sky clear below 12,000 feet AGL
Weather: no significant weather observed at this time

METAR text: EHRD 291455Z AUTO 06007KT 010V110 9999 NSC 21/05 Q1026 NOSIG
Conditions at: EHRD (ROTTERDAM AIRPOR, NL) observed 1455 UTC 29 May 2020
Temperature: 21.0°C (70°F)
Dewpoint: 5.0°C (41°F) [RH = 35%]
Pressure (altimeter): 30.30 inches Hg (1026.0 mb)
Winds: from the ENE (60 degrees) at 8 MPH (7 knots; 3.6 m/s)
Visibility: 6 or more miles (10+ km)
Ceiling: at least 12,000 feet AGL
Clouds: sky clear below 12,000 feet AGL
Weather: no significant weather observed at this time

Forecast for: EHRD (ROTTERDAM AIRPOR, NL)
Text: TAF EHRD 291042Z 2912/3018 05008KT CAVOK
Forecast period: 1200 UTC 29 May 2020 to 1800 UTC 30 May 2020
Forecast type: FROM: standard forecast or significant change
Winds: from the NE (50 degrees) at 9 MPH (8 knots; 4.1 m/s)
Visibility: 6 or more miles 10+ km)
Ceiling: unknown
Clouds: missing
Weather: NSW  (no significant weather)

 AIRPORT MAP

 RUNWAY INFORMATION
Runway 06 Runway length 7218 ft Runway width 148 ft
Runway elevation 0 ft Runway displaced threshold 656 ft Runway heading 57
Runway 24 Runway length 7218 ft Runway width 148 ft
Runway elevation 0 ft Runway displaced threshold 656 ft Runway heading 237

 AIRPORT FREQUENCIES
Type A/D Name SCHIPHOL Frequency 121.2 MHZ
Type APP Name APP Frequency 127.025 MHZ
Type ATIS Name ATIS Frequency 110.4 MHZ
Type GND Name GND Frequency 122.175 MHZ
Type TWR Name TWR Frequency 118.2 MHZ

 AIRPORT NEAR NAVIGATION AIDS
Type NDB Name Rotterdam Frequency 351 KHZ
Type VOR-DME Name Rotterdam Frequency 110400 KHZ